createdAt,value
2017-12-21T00:02:28.583Z,83.66
2017-12-21T00:05:01.164Z,83.68
2017-12-21T00:07:33.781Z,83.86
2017-12-21T00:10:06.291Z,83.99
2017-12-21T00:12:38.802Z,83.91
2017-12-21T00:15:11.302Z,83.80
2017-12-21T00:17:43.805Z,83.80
2017-12-21T00:20:16.320Z,83.67
2017-12-21T00:22:48.852Z,83.80
2017-12-21T00:25:21.424Z,83.83
2017-12-21T00:27:53.936Z,84.02
2017-12-21T00:30:26.573Z,84.13
2017-12-21T00:32:59.227Z,84.21
2017-12-21T00:35:31.744Z,84.12
2017-12-21T00:38:04.268Z,84.62
2017-12-21T00:40:36.776Z,84.30
2017-12-21T00:43:09.348Z,84.00
2017-12-21T00:45:41.868Z,83.99
2017-12-21T00:48:14.378Z,83.80
2017-12-21T00:50:46.869Z,84.53
2017-12-21T00:53:19.429Z,84.61
2017-12-21T00:55:53.820Z,84.75
2017-12-21T00:58:26.462Z,84.76
2017-12-21T01:00:59.045Z,84.80
2017-12-21T01:03:31.598Z,84.93
2017-12-21T01:06:04.155Z,84.95
2017-12-21T01:08:36.666Z,84.88
2017-12-21T01:11:09.355Z,84.74
2017-12-21T01:13:41.867Z,84.24
2017-12-21T01:16:14.356Z,84.36
2017-12-21T01:18:46.883Z,84.44
2017-12-21T01:21:19.377Z,84.76
2017-12-21T01:23:51.890Z,84.97
2017-12-21T01:26:24.780Z,84.91
2017-12-21T01:28:57.360Z,85.00
2017-12-21T01:31:29.910Z,84.86
2017-12-21T01:34:02.461Z,84.52
2017-12-21T01:36:34.975Z,84.57
2017-12-21T01:39:07.543Z,84.33
2017-12-21T01:41:40.118Z,84.29
2017-12-21T01:44:12.625Z,84.09
2017-12-21T01:46:45.142Z,83.98
2017-12-21T01:49:17.662Z,84.13
2017-12-21T01:51:50.225Z,84.14
2017-12-21T01:54:22.908Z,84.08
2017-12-21T01:56:55.899Z,84.23
2017-12-21T01:59:28.790Z,84.29
2017-12-21T02:02:01.304Z,84.58
2017-12-21T02:04:33.897Z,84.24
2017-12-21T02:07:06.446Z,83.58
2017-12-21T02:09:38.975Z,83.12
2017-12-21T02:12:11.459Z,83.44
2017-12-21T02:14:43.983Z,84.10
2017-12-21T02:17:16.466Z,84.23
2017-12-21T02:19:49.008Z,84.29
2017-12-21T02:22:21.556Z,84.34
2017-12-21T02:24:54.174Z,84.29
2017-12-21T02:27:26.866Z,84.30
2017-12-21T02:29:59.452Z,84.43
2017-12-21T02:32:31.975Z,84.27
2017-12-21T02:35:09.273Z,84.43
2017-12-21T02:37:41.801Z,83.99
2017-12-21T02:40:14.387Z,84.50
2017-12-21T02:42:46.891Z,84.56
2017-12-21T02:45:19.371Z,84.53
2017-12-21T02:47:55.345Z,84.48
2017-12-21T02:50:27.851Z,84.91
2017-12-21T02:53:00.401Z,84.99
2017-12-21T02:55:32.943Z,85.21
2017-12-21T02:58:05.481Z,85.20
2017-12-21T03:00:37.986Z,84.93
2017-12-21T03:03:10.496Z,84.97
2017-12-21T03:05:43.007Z,84.66
2017-12-21T03:08:15.524Z,83.98
2017-12-21T03:10:48.016Z,84.18
2017-12-21T03:13:22.337Z,84.27
2017-12-21T03:15:55.157Z,84.07
2017-12-21T03:18:27.718Z,83.40
2017-12-21T03:21:00.361Z,83.78
2017-12-21T03:23:32.904Z,84.23
2017-12-21T03:26:05.438Z,84.78
2017-12-21T03:28:39.916Z,84.29
2017-12-21T03:31:12.401Z,84.81
2017-12-21T03:33:44.915Z,84.84
2017-12-21T03:36:17.424Z,85.20
2017-12-21T03:38:49.920Z,84.78
2017-12-21T03:41:27.067Z,84.76
2017-12-21T03:43:59.635Z,84.89
2017-12-21T03:46:32.468Z,85.02
2017-12-21T03:49:05.071Z,84.71
2017-12-21T03:51:37.637Z,84.96
2017-12-21T03:54:10.221Z,84.76
2017-12-21T03:56:42.934Z,84.63
2017-12-21T03:59:15.439Z,84.72
2017-12-21T04:01:47.930Z,84.86
2017-12-21T04:04:20.455Z,84.77
2017-12-21T04:06:53.573Z,84.54
2017-12-21T04:09:26.121Z,84.41
2017-12-21T04:11:58.811Z,84.52
2017-12-21T04:14:31.547Z,84.62
2017-12-21T04:17:04.635Z,85.07
2017-12-21T04:19:37.262Z,85.15
2017-12-21T04:22:09.749Z,85.30
2017-12-21T04:24:42.255Z,85.30
2017-12-21T04:27:14.782Z,85.32
2017-12-21T04:29:47.299Z,85.05
2017-12-21T04:32:19.776Z,85.03
2017-12-21T04:34:53.132Z,85.33
2017-12-21T04:37:26.100Z,85.24
2017-12-21T04:39:58.801Z,85.15
2017-12-21T04:42:31.348Z,84.97
2017-12-21T04:45:04.184Z,85.23
2017-12-21T04:47:36.789Z,85.36
2017-12-21T04:50:09.358Z,85.38
2017-12-21T04:52:41.850Z,85.53
2017-12-21T04:55:14.358Z,85.79
2017-12-21T04:57:47.252Z,85.62
2017-12-21T05:00:19.799Z,85.39
2017-12-21T05:02:52.584Z,85.34
2017-12-21T05:05:25.479Z,85.30
2017-12-21T05:07:58.071Z,85.39
2017-12-21T05:10:31.780Z,85.33
2017-12-21T05:13:04.276Z,84.90
2017-12-21T05:15:36.853Z,84.68
2017-12-21T05:18:10.078Z,85.48
2017-12-21T05:20:42.585Z,86.11
2017-12-21T05:23:15.084Z,86.03
2017-12-21T05:25:47.616Z,86.06
2017-12-21T05:28:20.138Z,86.22
2017-12-21T05:30:53.029Z,85.57
2017-12-21T05:33:26.258Z,85.50
2017-12-21T05:35:58.764Z,85.03
2017-12-21T05:38:31.270Z,84.58
2017-12-21T05:41:03.839Z,84.03
2017-12-21T05:43:42.363Z,84.22
2017-12-21T05:46:14.849Z,83.88
2017-12-21T05:48:47.375Z,84.16
2017-12-21T05:51:19.903Z,83.64
2017-12-21T05:53:52.532Z,83.60
2017-12-21T05:56:25.033Z,83.53
2017-12-21T05:58:57.529Z,83.63
2017-12-21T06:01:30.397Z,83.88
2017-12-21T06:04:02.955Z,83.97
2017-12-21T06:06:35.476Z,84.16
2017-12-21T06:09:08.092Z,84.32
2017-12-21T06:11:40.621Z,84.41
2017-12-21T06:14:14.599Z,84.51
2017-12-21T06:16:47.089Z,84.52
2017-12-21T06:19:19.622Z,84.22
2017-12-21T06:21:52.338Z,84.25
2017-12-21T06:24:24.864Z,84.23
2017-12-21T06:26:57.830Z,83.92
2017-12-21T06:29:30.420Z,83.60
2017-12-21T06:32:02.906Z,83.36
2017-12-21T06:34:35.435Z,83.57
2017-12-21T06:37:08.072Z,83.67
2017-12-21T06:39:40.592Z,83.77
2017-12-21T06:42:14.590Z,83.65
2017-12-21T06:44:47.100Z,83.48
2017-12-21T06:47:19.579Z,84.22
2017-12-21T06:49:52.188Z,84.32
2017-12-21T06:52:24.690Z,84.37
2017-12-21T06:54:57.194Z,84.45
2017-12-21T06:57:29.670Z,84.26
2017-12-21T07:00:11.264Z,83.99
2017-12-21T07:02:43.742Z,84.55
2017-12-21T07:05:16.240Z,84.84
2017-12-21T07:07:48.761Z,84.96
2017-12-21T07:10:21.481Z,85.05
2017-12-21T07:12:57.146Z,84.50
2017-12-21T07:15:30.359Z,84.50
2017-12-21T07:18:03.255Z,84.38
2017-12-21T07:20:35.765Z,84.19
2017-12-21T07:23:09.340Z,84.37
2017-12-21T07:25:41.865Z,84.03
2017-12-21T07:28:14.392Z,83.78
2017-12-21T07:30:59.456Z,83.42
2017-12-21T07:33:32.160Z,83.32
2017-12-21T07:36:04.681Z,82.99
2017-12-21T07:38:37.302Z,82.95
2017-12-21T07:41:09.839Z,82.99
2017-12-21T07:43:42.378Z,82.63
2017-12-21T07:46:14.952Z,82.53
2017-12-21T07:48:47.429Z,82.54
2017-12-21T07:51:19.955Z,82.95
2017-12-21T07:53:52.562Z,83.08
2017-12-21T07:56:25.076Z,83.07
2017-12-21T07:59:01.217Z,82.55
2017-12-21T08:04:12.915Z,82.17
2017-12-21T08:06:53.136Z,82.15
2017-12-21T08:09:25.881Z,82.21
2017-12-21T08:11:58.823Z,82.32
2017-12-21T08:14:31.775Z,82.35
2017-12-21T08:17:04.506Z,82.64
2017-12-21T08:19:37.061Z,82.62
2017-12-21T08:22:09.598Z,82.31
2017-12-21T08:24:42.113Z,82.14
2017-12-21T08:27:15.548Z,82.16
2017-12-21T08:29:48.096Z,82.18
2017-12-21T08:32:28.244Z,82.22
2017-12-21T08:35:02.603Z,82.66
2017-12-21T08:37:35.130Z,82.86
2017-12-21T08:40:07.657Z,82.67
2017-12-21T08:42:40.171Z,82.90
2017-12-21T08:45:12.723Z,83.15
2017-12-21T08:47:45.314Z,82.83
2017-12-21T08:50:17.860Z,82.80
2017-12-21T08:52:50.343Z,82.76
2017-12-21T08:55:23.047Z,82.07
2017-12-21T08:57:55.645Z,81.66
2017-12-21T09:00:28.165Z,81.78
2017-12-21T09:03:00.676Z,82.29
2017-12-21T09:05:33.218Z,82.94
2017-12-21T09:08:05.816Z,82.79
2017-12-21T09:10:38.378Z,83.25
2017-12-21T09:13:10.920Z,83.04
2017-12-21T09:16:03.738Z,83.20
2017-12-21T09:18:36.361Z,83.49
2017-12-21T09:21:08.888Z,83.60
2017-12-21T09:23:41.474Z,83.57
2017-12-21T09:26:13.993Z,83.21
2017-12-21T09:28:46.489Z,83.32
2017-12-21T09:31:22.944Z,83.04
2017-12-21T09:33:56.239Z,82.67
2017-12-21T09:36:29.004Z,82.83
2017-12-21T09:39:01.500Z,82.97
2017-12-21T09:41:34.971Z,83.33
2017-12-21T09:44:07.823Z,83.48
2017-12-21T09:46:40.680Z,83.56
2017-12-21T09:49:13.288Z,83.85
2017-12-21T09:51:47.763Z,83.75
2017-12-21T09:54:20.852Z,83.72
2017-12-21T09:56:53.379Z,83.87
2017-12-21T09:59:25.935Z,84.15
2017-12-21T10:01:58.454Z,84.20
2017-12-21T10:04:30.940Z,84.12
2017-12-21T10:07:03.509Z,84.03
2017-12-21T10:09:36.083Z,83.44
2017-12-21T10:12:08.637Z,83.43
2017-12-21T10:14:41.145Z,83.17
2017-12-21T10:17:13.632Z,83.25
2017-12-21T10:19:46.665Z,83.02
2017-12-21T10:22:19.257Z,83.15
2017-12-21T10:24:53.373Z,83.01
2017-12-21T10:27:27.381Z,82.74
2017-12-21T10:30:00.024Z,82.59
2017-12-21T10:32:32.618Z,81.99
2017-12-21T10:35:05.115Z,81.97
2017-12-21T10:37:37.590Z,82.37
2017-12-21T10:40:10.105Z,82.32
2017-12-21T10:42:42.599Z,82.31
2017-12-21T10:45:17.141Z,82.53
2017-12-21T10:47:49.948Z,82.29
2017-12-21T10:50:22.507Z,82.35
2017-12-21T10:52:55.574Z,82.89
2017-12-21T10:55:28.191Z,82.45
2017-12-21T10:58:01.877Z,82.35
2017-12-21T11:00:34.930Z,82.03
2017-12-21T11:03:07.514Z,81.91
2017-12-21T11:05:41.300Z,81.85
2017-12-21T11:08:13.778Z,81.65
2017-12-21T11:10:46.307Z,81.63
2017-12-21T11:13:18.786Z,81.70
2017-12-21T11:15:51.363Z,81.68
2017-12-21T11:18:23.920Z,81.63
2017-12-21T11:20:57.449Z,81.92
2017-12-21T11:23:30.277Z,82.17
2017-12-21T11:26:02.838Z,82.34
2017-12-21T11:28:35.455Z,82.56
2017-12-21T11:31:07.950Z,81.96
2017-12-21T11:33:40.474Z,81.90
2017-12-21T11:36:12.969Z,81.43
2017-12-21T11:38:45.594Z,81.40
2017-12-21T11:41:18.110Z,81.42
2017-12-21T11:43:50.651Z,81.43
2017-12-21T11:46:23.213Z,81.87
2017-12-21T11:48:55.718Z,81.84
2017-12-21T11:51:28.807Z,81.84
2017-12-21T11:54:01.297Z,82.15
2017-12-21T11:56:34.340Z,81.59
2017-12-21T11:59:06.878Z,81.89
2017-12-21T12:01:39.502Z,82.53
2017-12-21T12:04:11.981Z,82.32
2017-12-21T12:06:44.476Z,82.24
2017-12-21T12:09:18.123Z,81.90
2017-12-21T12:11:50.647Z,81.74
2017-12-21T12:14:23.144Z,81.48
2017-12-21T12:16:55.653Z,81.57
2017-12-21T12:19:28.200Z,81.14
2017-12-21T12:22:00.799Z,80.94
2017-12-21T12:24:33.281Z,81.03
2017-12-21T12:27:05.796Z,80.94
2017-12-21T12:29:39.360Z,81.19
2017-12-21T12:32:11.901Z,80.97
2017-12-21T12:34:44.410Z,81.35
2017-12-21T12:37:16.914Z,80.85
2017-12-21T12:39:49.493Z,80.78
2017-12-21T12:42:22.238Z,80.85
2017-12-21T12:44:54.829Z,80.90
2017-12-21T12:47:27.333Z,80.38
2017-12-21T12:49:59.847Z,80.57
2017-12-21T12:52:32.369Z,80.82
2017-12-21T12:55:04.896Z,81.03
2017-12-21T12:57:37.468Z,80.73
2017-12-21T13:00:09.973Z,80.99
2017-12-21T13:02:42.480Z,81.19
2017-12-21T13:05:23.370Z,81.27
2017-12-21T13:07:56.231Z,81.14
2017-12-21T13:10:29.241Z,80.58
2017-12-21T13:13:01.809Z,80.67
2017-12-21T13:15:39.166Z,80.60
2017-12-21T13:18:11.670Z,80.85
2017-12-21T13:20:44.256Z,81.03
2017-12-21T13:23:16.768Z,80.76
2017-12-21T13:25:51.247Z,80.97
2017-12-21T13:28:23.773Z,81.25
2017-12-21T13:30:56.389Z,81.35
2017-12-21T13:33:29.007Z,81.53
2017-12-21T13:36:02.634Z,81.63
2017-12-21T13:38:35.152Z,81.51
2017-12-21T13:41:07.664Z,81.42
2017-12-21T13:43:40.171Z,81.35
2017-12-21T13:46:12.679Z,81.30
2017-12-21T13:48:45.156Z,81.55
2017-12-21T13:51:17.662Z,82.43
2017-12-21T13:53:50.274Z,82.18
2017-12-21T13:56:22.799Z,82.65
2017-12-21T13:58:55.901Z,82.43
2017-12-21T14:01:28.501Z,81.98
2017-12-21T14:04:01.003Z,81.86
2017-12-21T14:06:33.503Z,81.65
2017-12-21T14:09:06.859Z,81.73
2017-12-21T14:11:40.732Z,81.10
2017-12-21T14:14:13.979Z,80.93
2017-12-21T14:16:46.477Z,80.92
2017-12-21T14:19:19.028Z,80.80
2017-12-21T14:21:52.391Z,81.34
2017-12-21T14:24:24.888Z,81.23
2017-12-21T14:26:57.461Z,81.33
2017-12-21T14:29:30.137Z,81.36
2017-12-21T14:32:02.760Z,81.18
2017-12-21T14:34:35.312Z,80.87
2017-12-21T14:37:07.809Z,80.73
2017-12-21T14:39:40.287Z,80.93
2017-12-21T14:42:12.828Z,80.97
2017-12-21T14:44:45.418Z,80.81
2017-12-21T14:47:18.207Z,81.14
2017-12-21T14:49:50.845Z,81.45
2017-12-21T14:52:23.431Z,81.85
2017-12-21T14:54:55.915Z,81.50
2017-12-21T14:57:28.416Z,81.56
2017-12-21T15:00:00.926Z,81.66
2017-12-21T15:02:33.433Z,81.73
2017-12-21T15:05:05.913Z,81.50
2017-12-21T15:07:38.430Z,81.73
2017-12-21T15:10:10.932Z,81.61
2017-12-21T15:12:43.441Z,81.55
2017-12-21T15:15:15.934Z,81.73
2017-12-21T15:17:48.479Z,81.85
2017-12-21T15:20:21.310Z,82.04
2017-12-21T15:22:54.146Z,82.16
2017-12-21T15:25:29.499Z,82.05
2017-12-21T15:28:02.038Z,82.06
2017-12-21T15:30:34.584Z,81.81
2017-12-21T15:33:07.212Z,82.01
2017-12-21T15:35:39.694Z,82.09
2017-12-21T15:38:12.191Z,82.27
2017-12-21T15:40:44.671Z,82.35
2017-12-21T15:43:17.172Z,82.25
2017-12-21T15:45:49.642Z,82.06
2017-12-21T15:48:22.718Z,82.27
2017-12-21T15:50:55.999Z,82.18
2017-12-21T15:53:28.537Z,82.21
2017-12-21T15:56:01.074Z,82.45
2017-12-21T15:58:33.732Z,82.29
2017-12-21T16:01:06.238Z,82.57
2017-12-21T16:03:38.747Z,82.81
2017-12-21T16:06:11.230Z,82.87
2017-12-21T16:08:43.739Z,82.69
2017-12-21T16:11:16.224Z,82.27
2017-12-21T16:13:48.760Z,82.22
2017-12-21T16:16:21.334Z,82.20
2017-12-21T16:18:54.562Z,82.18
2017-12-21T16:21:27.327Z,82.55
2017-12-21T16:24:00.064Z,82.46
2017-12-21T16:26:32.743Z,82.40
2017-12-21T16:29:06.082Z,82.18
2017-12-21T16:31:38.626Z,82.21
2017-12-21T16:34:11.136Z,82.25
2017-12-21T16:36:43.634Z,82.37
2017-12-21T16:39:16.118Z,82.42
2017-12-21T16:41:50.912Z,82.64
2017-12-21T16:44:23.959Z,82.94
2017-12-21T16:46:56.948Z,83.25
2017-12-21T16:49:29.556Z,82.95
2017-12-21T16:52:02.120Z,82.76
2017-12-21T16:54:34.621Z,82.65
2017-12-21T16:57:07.119Z,82.67
2017-12-21T16:59:39.603Z,82.48
2017-12-21T17:02:12.293Z,82.29
2017-12-21T17:04:44.799Z,81.98
2017-12-21T17:07:17.300Z,81.82
2017-12-21T17:09:51.165Z,81.76
2017-12-21T17:12:24.256Z,80.97
2017-12-21T17:14:57.249Z,81.72
2017-12-21T17:17:29.791Z,81.73
2017-12-21T17:20:02.280Z,81.54
2017-12-21T17:22:35.693Z,81.49
2017-12-21T17:25:08.248Z,81.22
2017-12-21T17:27:40.756Z,81.41
2017-12-21T17:30:13.244Z,81.46
2017-12-21T17:32:45.739Z,81.46
2017-12-21T17:35:18.560Z,81.42
2017-12-21T17:37:51.822Z,81.50
2017-12-21T17:40:24.422Z,81.69
2017-12-21T17:42:57.280Z,81.52
2017-12-21T17:45:29.954Z,81.83
2017-12-21T17:48:02.517Z,81.88
2017-12-21T17:50:35.021Z,81.69
2017-12-21T17:53:07.720Z,81.44
2017-12-21T17:55:40.233Z,81.11
2017-12-21T17:58:12.749Z,80.89
2017-12-21T18:00:45.223Z,80.81
2017-12-21T18:03:17.763Z,80.81
2017-12-21T18:05:57.752Z,80.79
2017-12-21T18:08:30.506Z,80.62
2017-12-21T18:11:03.057Z,80.17
2017-12-21T18:13:35.560Z,80.58
2017-12-21T18:16:08.085Z,80.27
2017-12-21T18:18:40.597Z,80.10
2017-12-21T18:21:13.081Z,80.26
2017-12-21T18:23:45.587Z,80.06
2017-12-21T18:26:18.061Z,80.04
2017-12-21T18:28:50.995Z,80.18
2017-12-21T18:31:24.521Z,79.85
2017-12-21T18:33:57.069Z,79.75
2017-12-21T18:36:29.583Z,79.59
2017-12-21T18:39:02.329Z,79.09
2017-12-21T18:41:35.725Z,79.47
2017-12-21T18:44:08.244Z,80.07
2017-12-21T18:46:40.731Z,80.52
2017-12-21T18:49:13.247Z,80.14
2017-12-21T18:51:45.882Z,80.77
2017-12-21T18:54:30.319Z,80.74
2017-12-21T18:57:02.812Z,80.66
2017-12-21T18:59:35.335Z,80.75
2017-12-21T19:02:07.836Z,80.67
2017-12-21T19:04:40.341Z,81.09
2017-12-21T19:07:12.826Z,81.16
2017-12-21T19:09:45.344Z,81.79
2017-12-21T19:12:17.832Z,81.98
2017-12-21T19:14:50.896Z,81.81
2017-12-21T19:17:23.679Z,82.07
2017-12-21T19:19:56.272Z,81.75
2017-12-21T19:22:28.841Z,81.96
2017-12-21T19:25:01.370Z,81.82
2017-12-21T19:27:33.888Z,81.93
2017-12-21T19:30:06.776Z,81.79
2017-12-21T19:32:39.281Z,81.79
2017-12-21T19:35:11.776Z,81.74
2017-12-21T19:37:44.305Z,81.80
2017-12-21T19:40:16.806Z,81.62
2017-12-21T19:42:49.314Z,81.44
2017-12-21T19:45:21.817Z,81.50
2017-12-21T19:47:54.330Z,80.95
2017-12-21T19:50:26.936Z,80.66
2017-12-21T19:52:59.520Z,80.09
2017-12-21T19:55:32.060Z,80.13
2017-12-21T19:58:04.625Z,79.80
2017-12-21T20:00:37.207Z,79.88
2017-12-21T20:03:09.717Z,79.82
2017-12-21T20:05:42.264Z,79.93
2017-12-21T20:08:14.780Z,80.46
2017-12-21T20:10:47.262Z,80.50
2017-12-21T20:13:19.891Z,80.35
2017-12-21T20:15:53.309Z,80.24
2017-12-21T20:18:25.973Z,80.12
2017-12-21T20:20:58.476Z,80.33
2017-12-21T20:23:30.985Z,80.15
2017-12-21T20:26:03.484Z,80.03
2017-12-21T20:28:36.038Z,79.85
2017-12-21T20:31:08.542Z,79.69
2017-12-21T20:33:41.092Z,79.66
2017-12-21T20:36:13.578Z,79.73
2017-12-21T20:38:46.082Z,79.85
2017-12-21T20:41:18.588Z,80.19
2017-12-21T20:43:51.088Z,80.10
2017-12-21T20:46:29.504Z,79.87
2017-12-21T20:49:02.279Z,79.80
2017-12-21T20:51:36.359Z,79.72
2017-12-21T20:54:08.964Z,79.47
2017-12-21T20:56:41.540Z,79.51
2017-12-21T20:59:14.049Z,79.50
2017-12-21T21:01:46.576Z,79.41
2017-12-21T21:04:19.285Z,79.13
2017-12-21T21:06:55.522Z,79.71
2017-12-21T21:09:28.267Z,79.82
2017-12-21T21:12:00.787Z,79.86
2017-12-21T21:14:33.341Z,79.66
2017-12-21T21:17:06.077Z,79.78
2017-12-21T21:19:38.629Z,79.92
2017-12-21T21:22:11.110Z,79.99
2017-12-21T21:24:43.622Z,80.30
2017-12-21T21:27:16.146Z,80.21
2017-12-21T21:29:48.943Z,80.29
2017-12-21T21:32:21.954Z,80.35
2017-12-21T21:34:55.641Z,80.18
2017-12-21T21:37:28.230Z,80.38
2017-12-21T21:40:00.797Z,80.34
2017-12-21T21:42:33.802Z,80.44
2017-12-21T21:45:06.530Z,80.54
2017-12-21T21:47:39.034Z,80.44
2017-12-21T21:50:11.591Z,80.52
2017-12-21T21:52:44.083Z,80.57
2017-12-21T21:55:16.600Z,80.61
2017-12-21T21:57:49.085Z,80.54
2017-12-21T22:00:24.332Z,80.44
2017-12-21T22:02:57.667Z,80.55
2017-12-21T22:05:30.801Z,80.77
2017-12-21T22:08:03.292Z,80.55
2017-12-21T22:10:35.900Z,80.63
2017-12-21T22:13:08.427Z,80.66
2017-12-21T22:15:40.942Z,80.55
2017-12-21T22:18:13.443Z,80.50
2017-12-21T22:20:45.944Z,80.49
2017-12-21T22:23:18.428Z,80.71
2017-12-21T22:25:52.225Z,80.66
2017-12-21T22:28:25.143Z,80.70
2017-12-21T22:30:57.812Z,80.84
2017-12-21T22:33:30.308Z,80.66
2017-12-21T22:36:02.843Z,80.87
2017-12-21T22:38:35.328Z,80.96
2017-12-21T22:41:07.839Z,81.22
2017-12-21T22:43:40.327Z,81.48
2017-12-21T22:46:12.851Z,81.39
2017-12-21T22:48:45.328Z,81.47
2017-12-21T22:51:17.828Z,81.38
2017-12-21T22:53:51.593Z,81.47
2017-12-21T22:56:24.511Z,81.54
2017-12-21T22:58:57.260Z,81.37
2017-12-21T23:01:29.829Z,81.59
2017-12-21T23:04:02.326Z,81.45
2017-12-21T23:06:34.950Z,81.47
2017-12-21T23:09:07.506Z,81.30
2017-12-21T23:11:40.011Z,81.26
2017-12-21T23:14:12.516Z,81.06
2017-12-21T23:16:45.031Z,81.16
2017-12-21T23:19:17.519Z,81.24
2017-12-21T23:21:50.087Z,81.23
2017-12-21T23:24:22.603Z,81.35
2017-12-21T23:26:55.186Z,81.33
2017-12-21T23:29:27.838Z,81.23
2017-12-21T23:32:01.431Z,81.27
2017-12-21T23:34:34.055Z,81.48
2017-12-21T23:37:06.614Z,81.37
2017-12-21T23:39:39.095Z,81.73
2017-12-21T23:42:11.644Z,81.41
2017-12-21T23:44:44.121Z,81.40
2017-12-21T23:47:16.696Z,81.28
2017-12-21T23:49:49.213Z,81.75
2017-12-21T23:52:25.229Z,81.58
2017-12-21T23:54:58.635Z,81.55
2017-12-21T23:57:31.212Z,81.53
